Time;durP1;ratioP1;P1;durP2;ratioP2;P2;SDS_P1;SDS_P2;PMS_P1;PMS_P2;Temp;Humidity;BMP_temperature;BMP_pressure;BME280_temperature;BME280_humidity;BME280_pressure;Samples;Min_cycle;Max_cycle;Signal;HPM_P1;HPM_P2
2022/09/06 00:01:36;;;;;;;2.17;1.90;;;;;;;22.76;58.13;102069.88;5028802;28;20029;-80
2022/09/06 00:04:02;;;;;;;2.75;1.98;;;;;;;22.66;58.30;102057.19;5034212;28;20025;-81
2022/09/06 00:06:28;;;;;;;2.65;1.90;;;;;;;22.70;58.46;102072.41;5034694;28;20434;-79
2022/09/06 00:08:53;;;;;;;2.00;1.85;;;;;;;22.71;58.32;102067.97;5034077;28;20502;-79
2022/09/06 00:11:19;;;;;;;4.70;2.10;;;;;;;22.70;58.59;102069.75;5033839;28;20030;-80
2022/09/06 00:13:45;;;;;;;3.95;2.13;;;;;;;22.70;58.46;102074.16;5034134;28;20495;-80
2022/09/06 00:16:15;;;;;;;1.95;1.77;;;;;;;22.64;58.31;102055.38;5015846;28;20442;-80
2022/09/06 00:18:41;;;;;;;2.00;1.90;;;;;;;22.67;58.36;102072.34;5033133;28;20060;-80
2022/09/06 00:21:18;;;;;;;2.45;2.10;;;;;;;22.51;58.29;102046.19;5033109;28;20116;-79
2022/09/06 00:23:44;;;;;;;2.78;2.00;;;;;;;22.60;58.38;102062.38;5015877;28;20116;-80
2022/09/06 00:26:10;;;;;;;2.15;1.80;;;;;;;22.61;58.47;102069.53;5033627;28;20109;-80
2022/09/06 00:28:35;;;;;;;2.33;2.00;;;;;;;22.62;58.46;102079.28;5033902;28;20108;-80
2022/09/06 00:31:15;;;;;;;3.53;2.28;;;;;;;22.64;58.44;102079.34;5032849;28;20585;-81
2022/09/06 00:33:41;;;;;;;2.33;1.83;;;;;;;22.67;58.46;102074.06;5032789;28;20418;-80
2022/09/06 00:36:07;;;;;;;2.15;1.95;;;;;;;22.65;58.32;102075.78;5015603;28;20025;-79
2022/09/06 00:38:33;;;;;;;1.98;1.65;;;;;;;22.56;58.54;102058.75;5033260;28;20462;-81
2022/09/06 00:41:00;;;;;;;2.03;1.80;;;;;;;22.66;58.41;102070.53;5015718;28;20493;-80
2022/09/06 00:43:25;;;;;;;2.58;2.10;;;;;;;22.67;58.29;102071.41;5015577;28;20091;-80
2022/09/06 00:45:52;;;;;;;2.45;1.98;;;;;;;22.63;58.17;102075.78;5031819;28;20030;-79
2022/09/06 00:48:17;;;;;;;3.08;1.88;;;;;;;22.54;58.18;102063.13;5033212;28;20105;-80
2022/09/06 00:50:45;;;;;;;1.90;1.65;;;;;;;22.65;58.10;102083.78;5014985;28;20508;-79
2022/09/06 00:53:11;;;;;;;1.88;1.77;;;;;;;22.62;58.29;102083.72;5031535;28;20076;-80
2022/09/06 00:55:37;;;;;;;3.03;2.00;;;;;;;22.61;58.29;102076.63;5026749;28;20049;-80
2022/09/06 00:58:02;;;;;;;;;;;;;;;22.66;58.08;102083.84;5014845;28;20243;-80
2022/09/06 01:00:28;;;;;;;2.42;1.90;;;;;;;22.54;58.32;102062.22;5024609;28;20430;-81
2022/09/06 01:02:53;;;;;;;;;;;;;;;22.63;58.15;102074.91;5032765;28;20033;-81
2022/09/06 01:05:22;;;;;;;2.17;1.98;;;;;;;22.55;58.32;102069.34;5032934;28;19920;-81
2022/09/06 01:08:03;;;;;;;2.60;2.08;;;;;;;22.54;58.53;102071.13;5014826;28;20026;-80
2022/09/06 01:10:40;;;;;;;3.47;2.20;;;;;;;22.51;58.60;102071.03;5030462;28;20112;-79
2022/09/06 01:13:27;;;;;;;2.45;2.05;;;;;;;22.58;58.37;102072.09;5032803;28;20029;-80
2022/09/06 01:16:07;;;;;;;2.70;1.90;;;;;;;22.57;58.16;102075.63;5031202;28;20117;-80
2022/09/06 01:18:33;;;;;;;1.90;1.80;;;;;;;22.56;58.04;102068.47;5032264;28;20100;-80
2022/09/06 01:21:14;;;;;;;2.47;1.75;;;;;;;22.54;58.32;102079.13;5032766;28;20522;-80
2022/09/06 01:24:11;;;;;;;2.25;1.88;;;;;;;22.54;58.21;102084.44;5014606;28;20017;-81
2022/09/06 01:27:01;;;;;;;2.15;1.92;;;;;;;22.52;58.20;102075.50;5014714;28;20609;-80
2022/09/06 01:29:51;;;;;;;2.03;1.80;;;;;;;22.53;58.31;102071.09;5031759;28;20366;-80
2022/09/06 01:32:30;;;;;;;2.40;2.00;;;;;;;22.54;58.21;102068.47;5027015;28;20025;-79
2022/09/06 01:35:25;;;;;;;2.03;1.83;;;;;;;22.54;58.12;102068.47;5031809;28;20032;-80
2022/09/06 01:37:50;;;;;;;2.42;2.22;;;;;;;22.49;58.34;102069.19;4960998;28;20110;-80
2022/09/06 01:40:16;;;;;;;2.58;1.90;;;;;;;22.43;58.33;102061.94;5031618;28;20109;-80
2022/09/06 01:42:41;;;;;;;;;;;;;;;22.51;58.10;102076.34;5006974;28;20463;-80
2022/09/06 01:45:10;;;;;;;3.22;1.98;;;;;;;22.42;58.20;102054.84;5024716;28;20314;-80
2022/09/06 01:47:38;;;;;;;1.95;1.80;;;;;;;22.53;58.09;102055.09;5031007;28;20044;-80
2022/09/06 01:50:22;;;;;;;2.17;1.98;;;;;;;22.44;58.52;102061.09;5032242;28;20438;-81
2022/09/06 01:52:48;;;;;;;2.22;2.08;;;;;;;22.46;58.49;102058.47;5027412;28;20033;-81
2022/09/06 01:55:51;;;;;;;2.35;1.98;;;;;;;22.46;58.38;102055.81;5032307;28;20118;-81
2022/09/06 01:58:38;;;;;;;2.33;1.80;;;;;;;22.44;58.46;102052.22;5031634;28;20648;-81
2022/09/06 02:01:12;;;;;;;2.22;2.00;;;;;;;22.44;58.41;102052.22;5032447;28;20438;-81
2022/09/06 02:04:19;;;;;;;2.85;2.10;;;;;;;22.35;58.69;102044.88;5031072;28;20022;-81
2022/09/06 02:06:49;;;;;;;2.00;1.80;;;;;;;22.34;58.55;102038.66;5029355;28;20024;-81
2022/09/06 02:09:18;;;;;;;3.08;1.98;;;;;;;22.34;58.46;102040.44;5012501;28;20036;-80
2022/09/06 02:11:49;;;;;;;2.50;1.90;;;;;;;22.32;58.74;102035.06;5032008;28;20053;-80
2022/09/06 02:14:37;;;;;;;2.10;1.90;;;;;;;22.38;58.41;102044.97;5013627;28;20491;-80
2022/09/06 02:17:04;;;;;;;2.10;1.90;;;;;;;22.39;58.25;102032.56;5014291;28;20036;-80
2022/09/06 02:19:38;;;;;;;2.30;2.10;;;;;;;22.30;58.62;102031.44;5014033;28;20026;-80
2022/09/06 02:22:07;;;;;;;2.08;1.85;;;;;;;22.41;58.12;102031.72;5030662;28;20068;-80
2022/09/06 02:24:36;;;;;;;2.10;1.90;;;;;;;22.41;58.27;102045.03;5017401;28;20022;-80
2022/09/06 02:27:05;;;;;;;2.22;1.65;;;;;;;22.29;58.43;102029.66;5005257;28;20450;-80
2022/09/06 02:29:32;;;;;;;2.20;1.83;;;;;;;22.39;58.36;102032.56;5013103;28;20025;-80
2022/09/06 02:32:10;;;;;;;2.00;1.80;;;;;;;22.34;58.41;102029.78;5014174;28;20368;-80
2022/09/06 02:34:38;;;;;;;3.20;1.90;;;;;;;22.31;58.53;102027.06;5031256;28;20479;-80
2022/09/06 02:37:05;;;;;;;2.35;1.90;;;;;;;22.35;58.36;102027.16;5031431;28;20013;-80
2022/09/06 02:39:31;;;;;;;2.05;1.85;;;;;;;22.36;58.39;102025.41;5030208;28;20506;-80
2022/09/06 02:41:57;;;;;;;1.75;1.63;;;;;;;22.34;58.42;102027.13;5029100;28;20056;-80
2022/09/06 02:44:22;;;;;;;2.28;1.80;;;;;;;22.26;58.46;102024.25;5030166;28;20045;-80
2022/09/06 02:46:48;;;;;;;1.73;1.63;;;;;;;22.31;58.34;102030.59;5029939;28;20030;-80
2022/09/06 02:49:14;;;;;;;2.20;2.00;;;;;;;22.30;58.41;102031.44;5031117;28;20395;-80
2022/09/06 02:51:40;;;;;;;2.38;1.85;;;;;;;22.31;58.29;102032.38;5030270;28;20060;-81
2022/09/06 02:54:06;;;;;;;2.08;1.70;;;;;;;22.27;58.48;102030.50;5029379;28;20095;-79
2022/09/06 02:56:32;;;;;;;2.45;1.90;;;;;;;22.25;58.49;102022.47;5031460;28;20451;-79
2022/09/06 02:58:59;;;;;;;1.90;1.80;;;;;;;22.26;58.56;102034.00;5030874;28;20021;-80
2022/09/06 03:01:25;;;;;;;1.95;1.80;;;;;;;22.22;58.62;102021.44;5031866;28;20025;-80
2022/09/06 03:03:50;;;;;;;;;;;;;;;22.27;58.39;102033.16;5031681;28;20020;-79
2022/09/06 03:06:16;;;;;;;2.00;1.80;;;;;;;22.28;58.45;102041.16;5013598;28;19909;-80
2022/09/06 03:08:41;;;;;;;2.00;1.90;;;;;;;22.19;58.28;102019.59;5030892;28;20117;-80
2022/09/06 03:11:07;;;;;;;3.13;1.90;;;;;;;22.25;58.37;102026.88;5018607;28;20057;-80
2022/09/06 03:13:32;;;;;;;2.25;2.05;;;;;;;22.30;58.24;102030.56;5037979;28;20025;-80
2022/09/06 03:15:59;;;;;;;2.55;1.90;;;;;;;22.22;58.32;102030.31;5030606;28;20053;-81
2022/09/06 03:18:26;;;;;;;2.67;2.10;;;;;;;22.29;58.19;102036.75;5012986;28;20032;-80
2022/09/06 03:20:52;;;;;;;3.63;1.88;;;;;;;22.20;58.25;102017.84;5030581;28;20021;-81
2022/09/06 03:23:19;;;;;;;2.65;1.85;;;;;;;22.25;58.32;102041.09;5010753;28;20029;-80
2022/09/06 03:25:45;;;;;;;1.95;1.83;;;;;;;22.27;58.25;102033.16;5010727;28;20041;-80
2022/09/06 03:28:11;;;;;;;2.25;2.05;;;;;;;22.29;58.21;102036.75;5019058;28;20018;-80
2022/09/06 03:30:37;;;;;;;1.85;1.63;;;;;;;22.28;58.14;102043.81;5015584;28;20038;-79
2022/09/06 03:33:03;;;;;;;;;;;;;;;22.26;58.30;102041.97;5014968;28;20026;-79
2022/09/06 03:35:28;;;;;;;2.88;2.00;;;;;;;22.22;58.16;102040.94;5013675;28;19913;-81
2022/09/06 03:37:54;;;;;;;;;;;;;;;22.26;58.28;102050.84;5014947;28;20454;-81
2022/09/06 03:40:19;;;;;;;3.45;1.88;;;;;;;22.19;58.30;102037.34;4995358;28;20012;-80
2022/09/06 03:42:45;;;;;;;2.00;1.80;;;;;;;22.20;58.42;102045.34;5019766;28;20499;-81
2022/09/06 03:45:11;;;;;;;1.70;1.60;;;;;;;22.25;58.21;102040.19;5014597;28;20037;-80
2022/09/06 03:47:37;;;;;;;;;;;;;;;22.24;58.22;102046.34;5016175;28;20101;-80
2022/09/06 03:50:03;;;;;;;2.22;2.03;;;;;;;22.16;58.31;102041.72;5022968;28;20013;-80
2022/09/06 03:52:29;;;;;;;2.42;2.10;;;;;;;22.17;58.43;102048.81;5018235;28;20026;-80
2022/09/06 03:54:55;;;;;;;2.03;1.75;;;;;;;22.20;58.36;102052.41;5013907;28;20036;-80
2022/09/06 03:57:20;;;;;;;2.47;1.77;;;;;;;22.20;58.27;102053.31;5012973;28;20068;-79
2022/09/06 03:59:46;;;;;;;2.30;1.92;;;;;;;22.11;58.46;102035.34;5013452;28;20460;-80
2022/09/06 04:02:11;;;;;;;2.47;1.80;;;;;;;22.19;58.37;102048.88;5013751;28;20069;-81
2022/09/06 04:04:37;;;;;;;1.92;1.83;;;;;;;22.18;58.39;102047.06;5013424;28;20060;-81
2022/09/06 04:07:02;;;;;;;;;;;;;;;22.22;58.25;102046.28;5018184;28;20411;-80
2022/09/06 04:09:28;;;;;;;2.75;2.03;;;;;;;22.21;58.40;102040.94;5013371;28;19921;-80
2022/09/06 04:11:53;;;;;;;4.40;2.10;;;;;;;22.15;58.34;102044.31;5013478;28;20396;-81
2022/09/06 04:14:19;;;;;;;2.83;1.90;;;;;;;22.07;58.05;102027.25;5014457;28;20042;-80
2022/09/06 04:16:45;;;;;;;1.83;1.70;;;;;;;22.15;58.13;102044.31;5011904;28;20061;-80
2022/09/06 04:19:11;;;;;;;2.95;1.95;;;;;;;22.15;58.03;102039.00;5011979;28;20072;-82
2022/09/06 04:21:37;;;;;;;2.10;1.90;;;;;;;22.16;58.21;102041.72;5001947;28;20073;-82
2022/09/06 04:24:03;;;;;;;2.28;1.85;;;;;;;22.17;58.14;102059.47;5030858;28;20501;-78
2022/09/06 04:26:29;;;;;;;2.67;1.80;;;;;;;22.14;58.38;102059.41;5024596;28;20041;-79
2022/09/06 04:28:54;;;;;;;2.47;1.90;;;;;;;22.15;58.26;102060.28;5029021;28;20030;-78
2022/09/06 04:31:20;;;;;;;2.00;1.80;;;;;;;21.88;58.44;102023.19;5031306;28;20522;-79
2022/09/06 04:33:46;;;;;;;2.40;2.00;;;;;;;22.09;58.43;102054.78;5032209;28;20467;-81
2022/09/06 04:36:11;;;;;;;2.42;1.95;;;;;;;22.08;58.37;102053.00;5033024;28;20053;-82
2022/09/06 04:38:40;;;;;;;5.20;1.95;;;;;;;22.09;58.09;102053.03;5031022;28;20051;-83
2022/09/06 04:41:07;;;;;;;2.97;2.15;;;;;;;22.05;58.29;102043.16;5013781;28;20041;-82
2022/09/06 04:43:33;;;;;;;2.35;1.98;;;;;;;22.09;58.17;102055.69;5032313;28;20455;-81
2022/09/06 04:46:06;;;;;;;2.55;1.98;;;;;;;22.11;58.21;102058.41;5029721;28;20067;-80
2022/09/06 04:48:32;;;;;;;3.20;2.20;;;;;;;21.98;58.41;102042.97;5012472;28;20080;-80
2022/09/06 04:50:57;;;;;;;3.30;2.10;;;;;;;22.08;58.47;102058.34;5032234;28;20025;-82
2022/09/06 04:53:23;;;;;;;4.40;2.20;;;;;;;22.04;58.14;102052.03;5030209;28;20125;-82
2022/09/06 04:55:48;;;;;;;2.35;2.10;;;;;;;22.06;58.38;102057.38;5032152;28;20056;-83
2022/09/06 04:58:14;;;;;;;3.90;2.30;;;;;;;22.00;58.54;102051.91;5013202;28;20111;-83
2022/09/06 05:00:43;;;;;;;3.03;2.03;;;;;;;21.95;58.29;102034.06;5024024;28;20439;-83
2022/09/06 05:03:09;;;;;;;2.60;2.08;;;;;;;21.96;58.57;102046.47;5027729;28;20033;-82
2022/09/06 05:05:34;;;;;;;2.97;2.00;;;;;;;22.03;58.46;102058.19;5013246;28;20063;-80
2022/09/06 05:08:00;;;;;;;2.35;2.00;;;;;;;22.04;58.36;102052.03;5029402;28;20021;-82
2022/09/06 05:10:25;;;;;;;4.05;2.03;;;;;;;22.04;58.39;102048.47;5032562;28;20391;-81
2022/09/06 05:12:53;;;;;;;2.13;1.90;;;;;;;21.99;58.60;102055.41;5037181;28;20508;-80
2022/09/06 05:15:19;;;;;;;2.53;1.98;;;;;;;21.99;58.55;102050.97;5021648;28;20036;-81
2022/09/06 05:17:45;;;;;;;2.45;1.90;;;;;;;22.02;58.48;102044.88;5030281;28;20167;-80
2022/09/06 05:20:11;;;;;;;2.63;2.10;;;;;;;21.99;58.61;102048.31;5028683;28;20466;-81
2022/09/06 05:22:37;;;;;;;;;;;;;;;22.00;58.63;102054.56;5031255;28;20054;-80
2022/09/06 05:25:03;;;;;;;3.45;2.15;;;;;;;21.98;58.68;102054.50;5012289;28;19913;-82
2022/09/06 05:27:29;;;;;;;3.10;2.00;;;;;;;22.05;58.54;102052.91;5013798;28;20090;-83
2022/09/06 05:29:54;;;;;;;3.33;2.13;;;;;;;21.98;58.69;102053.63;5031355;28;20486;-82
2022/09/06 05:32:20;;;;;;;2.55;2.08;;;;;;;21.98;58.73;102053.63;5012491;28;20490;-81
2022/09/06 05:34:46;;;;;;;3.72;1.92;;;;;;;21.94;58.78;102057.94;5031473;28;20083;-82
2022/09/06 05:37:11;;;;;;;3.47;2.42;;;;;;;21.93;58.62;102050.84;5031632;28;20033;-83
2022/09/06 05:39:37;;;;;;;2.58;2.13;;;;;;;21.95;58.76;102057.09;5030310;28;20522;-81
2022/09/06 05:42:05;;;;;;;2.50;2.10;;;;;;;21.95;58.71;102054.44;5032297;28;20108;-84
2022/09/06 05:44:37;;;;;;;3.17;2.28;;;;;;;21.94;58.88;102055.28;5011160;28;20033;-84
2022/09/06 05:47:03;;;;;;;2.45;2.00;;;;;;;21.91;58.80;102052.53;5028642;28;20029;-81
2022/09/06 05:49:31;;;;;;;2.90;2.00;;;;;;;21.92;58.80;102057.00;5030957;28;20029;-82
2022/09/06 05:51:57;;;;;;;2.33;2.13;;;;;;;21.46;58.86;101976.84;5012999;28;20494;-84
2022/09/06 05:54:23;;;;;;;4.18;2.17;;;;;;;21.91;58.84;102050.78;5026600;28;20124;-81
2022/09/06 05:56:49;;;;;;;2.53;2.17;;;;;;;21.84;58.99;102046.13;5029060;28;20034;-82
2022/09/06 05:59:15;;;;;;;3.17;2.40;;;;;;;21.71;59.07;102028.94;5029051;28;20052;-83
2022/09/06 06:01:53;;;;;;;2.83;2.38;;;;;;;21.90;59.04;102059.59;5012003;28;20049;-82
2022/09/06 06:04:19;;;;;;;2.45;2.20;;;;;;;21.87;59.06;102050.66;5030873;28;20017;-81
2022/09/06 06:06:45;;;;;;;2.30;2.00;;;;;;;21.86;59.24;102059.47;5029784;28;20029;-81
2022/09/06 06:09:12;;;;;;;2.20;2.00;;;;;;;21.71;59.13;102036.91;5028165;28;20051;-83
2022/09/06 06:11:39;;;;;;;3.08;2.10;;;;;;;21.72;59.07;102032.50;5005627;28;20426;-84
2022/09/06 06:14:05;;;;;;;2.40;2.20;;;;;;;21.85;59.18;102058.59;5010216;28;20025;-82
2022/09/06 06:16:31;;;;;;;2.50;2.08;;;;;;;21.91;58.85;102058.75;5030930;28;20031;-81
2022/09/06 06:18:59;;;;;;;2.47;2.25;;;;;;;21.88;58.88;102061.31;5030365;28;20032;-82
2022/09/06 06:21:27;;;;;;;2.50;2.10;;;;;;;21.89;58.91;102063.13;5006245;28;20041;-82
2022/09/06 06:24:01;;;;;;;2.65;2.13;;;;;;;21.83;59.20;102052.31;5008561;28;20491;-80
2022/09/06 06:26:29;;;;;;;2.50;2.25;;;;;;;21.79;59.22;102045.09;5009759;28;20026;-82
2022/09/06 06:28:57;;;;;;;2.70;2.10;;;;;;;21.71;59.29;102046.66;5010226;28;20053;-81
2022/09/06 06:31:23;;;;;;;2.30;2.10;;;;;;;21.79;59.27;102054.84;5010965;28;20079;-83
2022/09/06 06:33:52;;;;;;;3.05;2.17;;;;;;;21.79;59.23;102060.19;5011764;28;20030;-81
2022/09/06 06:36:20;;;;;;;2.95;2.40;;;;;;;21.81;59.16;102058.47;5011186;28;20026;-80
2022/09/06 06:38:46;;;;;;;3.50;2.45;;;;;;;21.83;59.31;102060.31;5010066;28;20026;-79
2022/09/06 06:41:14;;;;;;;4.15;2.25;;;;;;;21.77;59.47;102053.91;4993541;28;20029;-80
2022/09/06 06:43:41;;;;;;;3.42;2.10;;;;;;;21.76;59.25;102055.69;5011949;28;20021;-80
2022/09/06 06:46:10;;;;;;;2.83;2.22;;;;;;;21.74;59.37;102063.59;5011338;28;20033;-83
2022/09/06 06:48:36;;;;;;;3.22;2.03;;;;;;;21.70;59.06;102058.16;5011392;28;20021;-81
2022/09/06 06:51:02;;;;;;;3.55;2.20;;;;;;;21.69;59.56;102059.00;5010936;28;20030;-84
2022/09/06 06:53:28;;;;;;;3.30;2.28;;;;;;;21.58;59.69;102034.75;5007911;28;20041;-83
2022/09/06 06:55:54;;;;;;;4.03;2.33;;;;;;;21.74;59.48;102063.59;5004325;28;20503;-82
2022/09/06 06:58:20;;;;;;;3.13;2.30;;;;;;;21.72;59.46;102057.34;5010196;28;20495;-82
2022/09/06 07:00:45;;;;;;;2.53;2.20;;;;;;;21.70;59.57;102053.72;5010968;28;20061;-80
2022/09/06 07:03:11;;;;;;;2.58;2.30;;;;;;;21.71;59.39;102049.31;5021194;28;20037;-82
2022/09/06 07:05:39;;;;;;;2.50;2.17;;;;;;;21.79;59.47;102055.75;5017276;28;20042;-82
2022/09/06 07:08:05;;;;;;;3.15;2.40;;;;;;;21.81;59.32;102061.13;4999741;28;20034;-83
2022/09/06 07:10:32;;;;;;;2.70;2.03;;;;;;;21.74;59.27;102052.97;4995588;28;20554;-82
2022/09/06 07:12:58;;;;;;;2.92;2.13;;;;;;;21.71;59.50;102068.81;4998393;28;20056;-82
2022/09/06 07:15:24;;;;;;;3.35;2.28;;;;;;;21.75;59.43;102072.47;4997358;28;20034;-80
2022/09/06 07:17:56;;;;;;;2.85;2.13;;;;;;;21.74;59.34;102070.69;5017139;28;20026;-81
2022/09/06 07:20:24;;;;;;;3.60;2.20;;;;;;;21.74;59.27;102070.69;5017639;28;20029;-81
2022/09/06 07:23:06;;;;;;;3.25;2.25;;;;;;;21.65;59.32;102055.38;5032094;28;20049;-82
2022/09/06 07:25:32;;;;;;;3.08;2.17;;;;;;;21.79;59.44;102078.78;5009311;28;20522;-82
2022/09/06 07:28:05;;;;;;;5.35;2.20;;;;;;;21.75;59.23;102093.75;5033903;28;20025;-82
2022/09/06 07:30:33;;;;;;;3.13;1.98;;;;;;;21.71;59.49;102079.44;5036428;28;20033;-82
2022/09/06 07:32:59;;;;;;;2.63;2.10;;;;;;;21.75;59.49;102085.75;5035746;28;20025;-82
2022/09/06 07:35:25;;;;;;;;;;;;;;;21.74;59.52;102091.97;5037643;28;20502;-82
2022/09/06 07:37:52;;;;;;;3.72;2.10;;;;;;;21.71;59.61;102091.84;5036570;28;19920;-82
2022/09/06 07:40:17;;;;;;;2.35;2.13;;;;;;;21.71;59.45;102078.56;5035014;28;20040;-81
2022/09/06 07:42:43;;;;;;;3.05;2.33;;;;;;;21.77;59.53;102094.69;5032787;28;20021;-81
2022/09/06 07:45:08;;;;;;;3.15;2.10;;;;;;;21.72;59.62;102088.34;5038047;28;20026;-81
2022/09/06 07:47:34;;;;;;;2.20;2.00;;;;;;;21.72;59.66;102086.59;5037258;28;20025;-80
2022/09/06 07:50:00;;;;;;;;;;;;;;;21.82;59.25;102086.84;5019498;28;20491;-82
2022/09/06 07:52:27;;;;;;;4.22;2.15;;;;;;;21.77;59.37;102086.72;5037202;28;20008;-81
2022/09/06 07:54:55;;;;;;;2.25;2.05;;;;;;;21.72;59.52;102086.59;5039716;28;20113;-83
2022/09/06 07:57:22;;;;;;;3.10;2.30;;;;;;;21.76;59.44;102084.94;5039519;28;20036;-80
2022/09/06 07:59:48;;;;;;;3.75;2.00;;;;;;;21.72;59.49;102080.38;5057820;28;20025;-81
2022/09/06 08:02:14;;;;;;;2.83;2.20;;;;;;;21.73;59.50;102091.03;5050583;28;20062;-81
2022/09/06 08:04:40;;;;;;;4.05;2.17;;;;;;;21.70;58.61;102079.44;5039003;28;20028;-78
2022/09/06 08:07:06;;;;;;;3.30;2.30;;;;;;;21.70;58.96;102085.63;5037013;28;20021;-81
2022/09/06 08:09:31;;;;;;;2.75;2.03;;;;;;;21.49;58.75;102037.16;5035862;28;20033;-82
2022/09/06 08:11:57;;;;;;;3.75;2.47;;;;;;;21.65;59.22;102070.41;5034308;28;20040;-81
2022/09/06 08:14:23;;;;;;;2.80;2.40;;;;;;;21.72;59.06;102086.59;5036126;28;20530;-82
2022/09/06 08:16:49;;;;;;;4.05;2.60;;;;;;;21.72;59.11;102081.25;5029955;28;20056;-80
2022/09/06 08:19:14;;;;;;;2.80;2.50;;;;;;;21.66;58.96;102069.56;5031948;28;20087;-80
2022/09/06 08:21:40;;;;;;;3.67;2.50;;;;;;;21.72;59.22;102077.72;5032744;28;20053;-80
2022/09/06 08:24:08;;;;;;;3.30;2.00;;;;;;;21.72;59.19;102077.72;5014672;28;20040;-81
2022/09/06 08:26:38;;;;;;;2.40;2.13;;;;;;;21.83;59.02;102070.03;5033487;28;20112;-81
2022/09/06 08:29:05;;;;;;;2.85;2.28;;;;;;;21.88;58.61;102065.75;5013470;28;20033;-80
2022/09/06 08:31:32;;;;;;;3.80;2.50;;;;;;;22.00;58.47;102059.88;5039518;28;20029;-81
2022/09/06 08:33:58;;;;;;;2.28;1.92;;;;;;;22.09;58.29;102071.66;5014206;28;20029;-82
2022/09/06 08:36:30;;;;;;;3.40;2.47;;;;;;;22.02;58.73;102068.81;5030549;28;20040;-81
2022/09/06 08:39:00;;;;;;;3.70;2.22;;;;;;;21.95;58.88;102081.94;5014668;28;20033;-81
2022/09/06 08:41:31;;;;;;;3.65;1.95;;;;;;;21.94;59.01;102073.91;5031398;28;20033;-80
2022/09/06 08:44:02;;;;;;;2.97;2.22;;;;;;;21.92;59.02;102076.50;5032311;28;20470;-80
2022/09/06 08:46:37;;;;;;;2.70;2.17;;;;;;;22.08;58.69;102079.63;5029568;28;20068;-82
2022/09/06 08:49:04;;;;;;;2.60;2.10;;;;;;;22.06;58.63;102079.56;5031048;28;20029;-82
2022/09/06 08:51:47;;;;;;;2.53;1.90;;;;;;;22.22;58.26;102077.31;5030728;28;20632;-82
2022/09/06 08:54:24;;;;;;;2.45;2.10;;;;;;;22.02;58.58;102071.47;5032323;28;20052;-81
2022/09/06 08:57:13;;;;;;;3.00;1.92;;;;;;;22.13;58.56;102080.63;5014821;28;20537;-81
2022/09/06 08:59:39;;;;;;;2.88;2.10;;;;;;;22.04;58.23;102062.66;5031368;28;20069;-81
2022/09/06 09:02:12;;;;;;;3.58;1.80;;;;;;;22.07;58.84;102067.16;5031471;28;20032;-81
2022/09/06 09:04:42;;;;;;;2.47;2.13;;;;;;;22.12;58.56;102066.44;5012454;28;20454;-81
2022/09/06 09:07:31;;;;;;;2.70;2.33;;;;;;;22.09;58.53;102063.69;5025281;28;20642;-81
2022/09/06 09:09:57;;;;;;;1.90;1.80;;;;;;;22.18;58.46;102065.69;5027935;28;20025;-83
2022/09/06 09:12:24;;;;;;;3.25;1.98;;;;;;;22.07;58.48;102043.22;5032078;28;20112;-82
2022/09/06 09:15:04;;;;;;;3.25;2.30;;;;;;;22.12;58.53;102050.47;5033713;28;20541;-82
2022/09/06 09:17:31;;;;;;;2.60;2.17;;;;;;;22.02;58.65;102043.09;5012701;28;20025;-82
2022/09/06 09:19:57;;;;;;;2.92;2.25;;;;;;;22.13;58.59;102052.25;5028005;28;20498;-82
2022/09/06 09:22:24;;;;;;;2.47;1.92;;;;;;;22.07;58.80;102051.19;5013927;28;20037;-83
2022/09/06 09:24:51;;;;;;;2.50;2.08;;;;;;;22.04;58.82;102041.38;5030931;28;20479;-82
2022/09/06 09:27:27;;;;;;;2.50;2.00;;;;;;;22.04;59.01;102045.81;5013852;28;20028;-83
2022/09/06 09:29:52;;;;;;;2.60;2.17;;;;;;;22.15;58.45;102044.31;5015204;28;20030;-82
2022/09/06 09:32:42;;;;;;;2.25;2.05;;;;;;;22.10;58.53;102044.22;5031446;28;20474;-82
2022/09/06 09:35:28;;;;;;;2.45;1.85;;;;;;;22.14;58.53;102040.78;5014057;28;20832;-81
2022/09/06 09:38:06;;;;;;;2.10;1.88;;;;;;;21.88;58.73;102008.13;5029965;28;20033;-82
2022/09/06 09:40:59;;;;;;;2.95;2.00;;;;;;;22.13;58.46;102038.06;5027962;28;20030;-82
2022/09/06 09:43:34;;;;;;;2.78;2.10;;;;;;;22.02;58.75;102037.78;5032399;28;20079;-82
2022/09/06 09:46:23;;;;;;;2.63;2.22;;;;;;;22.10;58.59;102040.66;5013401;28;20025;-84
2022/09/06 09:49:06;;;;;;;2.53;2.20;;;;;;;22.08;58.78;102042.38;5029439;28;20033;-82
2022/09/06 09:51:34;;;;;;;2.03;1.90;;;;;;;22.06;58.75;102036.09;5032698;28;20411;-81
2022/09/06 09:54:03;;;;;;;4.50;2.25;;;;;;;22.05;58.78;102034.28;5013715;28;20029;-82
2022/09/06 09:57:07;;;;;;;2.28;1.92;;;;;;;22.14;58.60;102035.44;5013682;28;20133;-82
2022/09/06 09:59:43;;;;;;;2.40;2.00;;;;;;;22.02;58.99;102034.22;5010237;28;20056;-81
2022/09/06 10:02:24;;;;;;;3.45;2.20;;;;;;;22.04;58.57;102016.53;5031969;28;20119;-82
2022/09/06 10:04:52;;;;;;;4.70;2.10;;;;;;;22.01;59.04;102025.31;5030985;28;20021;-81
2022/09/06 10:07:24;;;;;;;2.65;2.15;;;;;;;21.96;59.06;102026.97;5035116;28;20451;-81
2022/09/06 10:10:06;;;;;;;2.10;1.83;;;;;;;22.00;58.92;102019.97;5009023;28;20032;-80
2022/09/06 10:12:34;;;;;;;2.88;2.05;;;;;;;22.07;58.67;102020.16;5007751;28;20056;-80
2022/09/06 10:15:01;;;;;;;3.08;2.10;;;;;;;22.09;58.73;102015.78;5013528;28;20036;-80
2022/09/06 10:17:30;;;;;;;2.25;2.00;;;;;;;22.13;58.75;102024.75;5013476;28;20057;-80
2022/09/06 10:19:59;;;;;;;2.05;1.85;;;;;;;22.08;58.79;102029.97;5030853;28;20037;-81
2022/09/06 10:22:38;;;;;;;3.80;2.15;;;;;;;22.17;58.73;102022.22;5014558;28;20138;-81
2022/09/06 10:25:07;;;;;;;2.95;2.10;;;;;;;22.04;59.10;102019.19;5007760;28;20097;-80
2022/09/06 10:27:32;;;;;;;2.47;2.25;;;;;;;21.88;58.88;101984.19;5024288;28;20033;-79
2022/09/06 10:30:05;;;;;;;2.25;1.80;;;;;;;22.11;58.92;102002.53;5030163;28;20467;-81
2022/09/06 10:32:48;;;;;;;2.50;2.20;;;;;;;21.95;58.82;101983.50;5012765;28;20025;-80
2022/09/06 10:35:18;;;;;;;2.75;2.22;;;;;;;22.01;59.28;102006.69;5006716;28;20048;-81
2022/09/06 10:38:09;;;;;;;3.83;2.22;;;;;;;22.11;59.04;102002.53;5024716;28;20025;-80
2022/09/06 10:40:55;;;;;;;3.10;2.20;;;;;;;22.11;58.89;102003.41;5021069;28;20087;-81
2022/09/06 10:43:22;;;;;;;2.00;1.80;;;;;;;22.02;59.21;102002.31;4996364;28;20025;-80
2022/09/06 10:46:11;;;;;;;2.28;1.90;;;;;;;21.86;59.24;101966.41;5015595;28;20096;-81
2022/09/06 10:48:45;;;;;;;2.83;2.35;;;;;;;22.15;59.11;101997.31;5007244;28;20109;-80
2022/09/06 10:51:20;;;;;;;2.50;2.00;;;;;;;22.15;58.75;101983.13;5012370;28;20553;-81
2022/09/06 10:53:45;;;;;;;2.45;2.20;;;;;;;22.15;58.89;101983.13;5028430;28;20445;-80
2022/09/06 10:56:57;;;;;;;2.88;2.00;;;;;;;22.17;58.78;101981.41;5030505;28;20033;-80
2022/09/06 10:59:41;;;;;;;2.50;1.95;;;;;;;22.10;58.84;101991.00;5005261;28;20463;-79
2022/09/06 11:02:19;;;;;;;3.05;2.10;;;;;;;22.04;59.09;101982.84;5016483;28;20025;-79
2022/09/06 11:04:46;;;;;;;2.40;2.20;;;;;;;22.14;58.61;101974.25;5028926;28;20032;-80
2022/09/06 11:07:33;;;;;;;2.53;1.98;;;;;;;21.98;58.46;101936.56;5011825;28;20033;-78
2022/09/06 11:10:23;;;;;;;4.50;1.90;;;;;;;22.10;58.66;101982.13;5007823;28;20064;-80
2022/09/06 11:13:00;;;;;;;3.83;2.00;;;;;;;22.05;59.10;101976.66;5013167;28;21208;-79
2022/09/06 11:15:29;;;;;;;2.38;2.13;;;;;;;22.24;58.19;101975.41;5011594;28;20036;-81
2022/09/06 11:18:08;;;;;;;2.38;1.88;;;;;;;22.31;58.27;101976.50;5030643;28;20033;-81
2022/09/06 11:21:02;;;;;;;2.40;1.90;;;;;;;22.16;58.64;101972.53;5039095;28;20096;-80
2022/09/06 11:23:39;;;;;;;3.38;2.20;;;;;;;22.22;58.51;101978.84;5014932;28;20041;-80
2022/09/06 11:26:20;;;;;;;1.80;1.70;;;;;;;22.15;58.19;101973.38;5025243;28;20025;-81
2022/09/06 11:28:56;;;;;;;2.72;2.20;;;;;;;22.14;58.48;101968.94;5032879;28;20053;-80
2022/09/06 11:31:28;;;;;;;3.05;1.90;;;;;;;22.20;58.65;101973.50;4993653;28;20030;-80
2022/09/06 11:34:11;;;;;;;2.50;1.95;;;;;;;22.35;58.44;101973.94;5035795;28;20477;-80
2022/09/06 11:36:39;;;;;;;4.03;2.00;;;;;;;22.01;58.44;101934.88;5012005;28;20028;-81
2022/09/06 11:39:07;;;;;;;2.35;1.88;;;;;;;22.18;58.65;101975.22;4988373;28;20030;-81
2022/09/06 11:41:39;;;;;;;2.90;2.03;;;;;;;22.39;57.99;101974.00;5030308;28;20021;-81